createdAt,value
2023-04-22T00:01:24.558Z,91.75
2023-04-22T00:03:51.884Z,91.57
2023-04-22T00:06:18.917Z,90.83
2023-04-22T00:08:45.488Z,90.46
2023-04-22T00:11:12.124Z,90.13
2023-04-22T00:13:38.680Z,89.84
2023-04-22T00:16:05.478Z,89.17
2023-04-22T00:18:35.869Z,89.43
2023-04-22T00:21:03.150Z,89.20
2023-04-22T00:23:29.832Z,88.50
2023-04-22T00:25:56.334Z,88.67
2023-04-22T00:28:22.813Z,88.85
2023-04-22T00:30:49.345Z,88.65
2023-04-22T00:33:15.826Z,88.77
2023-04-22T00:35:42.304Z,88.13
2023-04-22T00:38:08.791Z,88.30
2023-04-22T00:40:35.233Z,88.06
2023-04-22T00:43:02.889Z,87.93
2023-04-22T00:45:30.656Z,88.90
2023-04-22T00:47:57.613Z,88.96
2023-04-22T00:50:24.232Z,89.25
2023-04-22T00:52:50.717Z,89.09
2023-04-22T00:55:17.364Z,88.58
2023-04-22T00:57:44.488Z,89.69
2023-04-22T01:00:11.671Z,89.41
2023-04-22T01:02:38.946Z,89.33
2023-04-22T01:05:08.507Z,89.42
2023-04-22T01:07:36.358Z,89.32
2023-04-22T01:10:03.862Z,89.55
2023-04-22T01:12:30.420Z,89.00
2023-04-22T01:14:57.049Z,89.16
2023-04-22T01:17:24.791Z,89.38
2023-04-22T01:19:52.737Z,90.93
2023-04-22T01:22:20.766Z,91.00
2023-04-22T01:24:47.471Z,91.79
2023-04-22T01:27:14.323Z,92.52
2023-04-22T01:29:41.053Z,93.42
2023-04-22T01:32:07.944Z,93.46
2023-04-22T01:34:34.658Z,94.17
2023-04-22T01:37:01.212Z,94.76
2023-04-22T01:39:27.897Z,95.62
2023-04-22T01:41:55.697Z,96.03
2023-04-22T01:44:22.690Z,96.49
2023-04-22T01:46:49.187Z,96.88
2023-04-22T01:49:15.631Z,97.42
2023-04-22T01:51:42.188Z,97.40
2023-04-22T01:54:10.285Z,97.43
2023-04-22T01:56:38.686Z,97.15
2023-04-22T01:59:05.208Z,98.05
2023-04-22T02:01:31.741Z,97.55
2023-04-22T02:03:58.288Z,97.28
2023-04-22T02:06:24.843Z,96.67
2023-04-22T02:08:51.307Z,95.63
2023-04-22T02:11:17.797Z,94.98
2023-04-22T02:13:44.994Z,94.99
2023-04-22T02:16:11.606Z,95.59
2023-04-22T02:18:38.208Z,96.09
2023-04-22T02:21:04.721Z,95.13
2023-04-22T02:23:31.210Z,95.43
2023-04-22T02:25:57.698Z,95.06
2023-04-22T02:28:24.301Z,96.29
2023-04-22T02:30:50.928Z,95.79
2023-04-22T02:33:17.503Z,95.44
2023-04-22T02:35:43.938Z,95.14
2023-04-22T02:38:11.009Z,95.80
2023-04-22T02:40:37.531Z,95.67
2023-04-22T02:43:04.344Z,95.42
2023-04-22T02:45:30.901Z,95.98
2023-04-22T02:47:57.425Z,96.06
2023-04-22T02:50:24.064Z,95.71
2023-04-22T02:52:51.331Z,95.93
2023-04-22T02:55:17.948Z,96.92
2023-04-22T02:57:44.407Z,97.27
2023-04-22T03:00:11.357Z,97.71
2023-04-22T03:02:38.791Z,98.42
2023-04-22T03:05:06.056Z,98.45
2023-04-22T03:07:32.594Z,98.84
2023-04-22T03:09:59.128Z,98.49
2023-04-22T03:12:25.621Z,98.35
2023-04-22T03:14:52.118Z,98.44
2023-04-22T03:17:18.713Z,98.55
2023-04-22T03:19:45.251Z,98.66
2023-04-22T03:22:11.753Z,98.83
2023-04-22T03:24:38.342Z,99.10
2023-04-22T03:27:05.389Z,98.76
2023-04-22T03:29:32.365Z,98.41
2023-04-22T03:31:58.941Z,98.83
2023-04-22T03:34:25.606Z,98.52
2023-04-22T03:36:52.232Z,98.76
2023-04-22T03:39:18.698Z,99.59
2023-04-22T03:41:45.350Z,100.00
2023-04-22T03:44:11.846Z,100.00
2023-04-22T03:46:38.261Z,100.00
2023-04-22T03:49:05.537Z,100.00
2023-04-22T03:51:32.222Z,100.00
2023-04-22T03:53:58.698Z,100.00
2023-04-22T03:56:25.519Z,100.00
2023-04-22T03:58:52.027Z,100.00
2023-04-22T04:01:18.540Z,100.00
2023-04-22T04:03:45.239Z,100.00
2023-04-22T04:06:12.027Z,100.00
2023-04-22T04:08:38.544Z,100.00
2023-04-22T04:11:05.064Z,100.00
2023-04-22T04:13:32.457Z,100.00
2023-04-22T04:16:00.470Z,100.00
2023-04-22T04:18:27.385Z,100.00
2023-04-22T04:20:53.902Z,100.00
2023-04-22T04:23:20.411Z,100.00
2023-04-22T04:25:47.005Z,100.00
2023-04-22T04:28:13.828Z,100.00
2023-04-22T04:30:41.732Z,100.00
2023-04-22T04:33:08.610Z,100.00
2023-04-22T04:35:37.513Z,100.00
2023-04-22T04:38:05.651Z,100.00
2023-04-22T04:40:32.710Z,100.00
2023-04-22T04:43:02.551Z,100.00
2023-04-22T04:45:30.026Z,100.00
2023-04-22T04:47:56.865Z,100.00
2023-04-22T04:50:23.673Z,100.00
2023-04-22T04:52:50.283Z,100.00
2023-04-22T04:55:17.606Z,100.00
2023-04-22T04:57:45.608Z,100.00
2023-04-22T05:00:14.065Z,100.00
2023-04-22T05:02:41.084Z,100.00
2023-04-22T05:05:08.649Z,100.00
2023-04-22T05:07:35.516Z,100.00
2023-04-22T05:10:02.774Z,100.00
2023-04-22T05:12:29.242Z,100.00
2023-04-22T05:14:55.741Z,100.00
2023-04-22T05:17:22.339Z,100.00
2023-04-22T05:19:48.910Z,100.00
2023-04-22T05:22:15.881Z,100.00
2023-04-22T05:24:42.345Z,100.00
2023-04-22T05:27:09.305Z,100.00
2023-04-22T05:29:36.714Z,100.00
2023-04-22T05:32:03.221Z,99.25
2023-04-22T05:34:29.711Z,99.04
2023-04-22T05:36:56.186Z,99.07
2023-04-22T05:39:22.759Z,97.35
2023-04-22T05:41:49.371Z,97.33
2023-04-22T05:44:17.509Z,95.78
2023-04-22T05:46:44.105Z,95.18
2023-04-22T05:49:10.606Z,93.99
2023-04-22T05:51:37.174Z,93.85
2023-04-22T05:54:03.921Z,94.13
2023-04-22T05:56:30.530Z,93.80
2023-04-22T05:58:57.029Z,94.09
2023-04-22T06:01:24.818Z,93.71
2023-04-22T06:03:51.674Z,93.64
2023-04-22T06:06:18.736Z,93.63
2023-04-22T06:08:45.263Z,93.26
2023-04-22T06:11:11.798Z,92.79
2023-04-22T06:13:38.305Z,92.73
2023-04-22T06:18:32.876Z,92.50
2023-04-22T06:20:59.408Z,91.76
2023-04-22T06:23:26.110Z,91.72
2023-04-22T06:25:52.583Z,91.61
2023-04-22T06:28:19.068Z,92.69
2023-04-22T06:30:45.573Z,92.53
2023-04-22T06:33:12.645Z,91.90
2023-04-22T06:35:39.263Z,91.80
2023-04-22T06:38:05.770Z,91.57
2023-04-22T06:40:32.313Z,90.78
2023-04-22T06:42:59.775Z,91.20
2023-04-22T06:45:26.387Z,91.74
2023-04-22T06:47:56.043Z,91.34
2023-04-22T06:50:22.792Z,90.90
2023-04-22T06:52:49.503Z,90.42
2023-04-22T06:55:16.039Z,90.70
2023-04-22T06:57:42.541Z,91.73
2023-04-22T07:00:09.378Z,90.28
2023-04-22T07:02:35.893Z,89.52
2023-04-22T07:05:02.426Z,88.98
2023-04-22T07:07:29.159Z,88.84
2023-04-22T07:09:55.754Z,88.46
2023-04-22T07:12:22.304Z,89.41
2023-04-22T07:14:49.612Z,90.73
2023-04-22T07:17:19.309Z,90.18
2023-04-22T07:19:45.816Z,90.08
2023-04-22T07:22:12.413Z,90.32
2023-04-22T07:24:39.873Z,90.29
2023-04-22T07:27:06.672Z,90.10
2023-04-22T07:29:34.036Z,90.26
2023-04-22T07:32:00.618Z,89.77
2023-04-22T07:34:27.226Z,89.21
2023-04-22T07:36:53.782Z,91.30
2023-04-22T07:39:20.589Z,90.24
2023-04-22T07:41:47.060Z,90.46
2023-04-22T07:44:17.294Z,89.90
2023-04-22T07:46:44.039Z,90.10
2023-04-22T07:49:10.521Z,90.43
2023-04-22T07:51:37.033Z,92.20
2023-04-22T07:54:03.667Z,91.47
2023-04-22T07:56:30.507Z,90.04
2023-04-22T07:58:56.996Z,90.82
2023-04-22T08:01:23.516Z,90.38
2023-04-22T08:03:50.237Z,90.20
2023-04-22T08:06:17.322Z,90.31
2023-04-22T08:08:43.848Z,89.82
2023-04-22T08:11:10.347Z,90.48
2023-04-22T08:13:36.759Z,89.88
2023-04-22T08:16:03.471Z,89.87
2023-04-22T08:18:30.322Z,89.27
2023-04-22T08:20:56.770Z,88.45
2023-04-22T08:23:23.433Z,88.16
2023-04-22T08:25:50.121Z,87.25
2023-04-22T08:28:16.684Z,85.65
2023-04-22T08:30:43.226Z,85.03
2023-04-22T08:33:09.790Z,81.65
2023-04-22T08:35:36.661Z,77.35
2023-04-22T08:38:03.327Z,74.91
2023-04-22T08:40:30.032Z,73.54
2023-04-22T08:42:57.567Z,69.11
2023-04-22T08:45:24.290Z,68.14
2023-04-22T08:47:52.477Z,65.21
2023-04-22T08:50:21.380Z,65.19
2023-04-22T08:52:48.071Z,65.82
2023-04-22T08:55:14.496Z,64.83
2023-04-22T08:57:41.326Z,66.17
2023-04-22T09:00:11.117Z,66.27
2023-04-22T09:02:39.773Z,63.61
2023-04-22T09:05:09.382Z,63.92
2023-04-22T09:07:36.516Z,62.20
2023-04-22T09:10:03.236Z,60.59
2023-04-22T09:12:29.811Z,57.73
2023-04-22T09:14:56.431Z,55.88
2023-04-22T09:17:38.393Z,54.26
2023-04-22T09:20:07.234Z,55.96
2023-04-22T09:22:45.075Z,55.73
2023-04-22T09:25:22.656Z,55.25
2023-04-22T09:27:59.410Z,58.10
2023-04-22T09:30:31.129Z,60.14
2023-04-22T09:33:02.639Z,61.74
2023-04-22T09:35:34.992Z,62.81
2023-04-22T09:38:04.836Z,62.84
2023-04-22T09:40:32.081Z,63.04
2023-04-22T09:43:02.548Z,64.80
2023-04-22T09:45:33.312Z,63.59
2023-04-22T09:48:03.160Z,63.98
2023-04-22T09:50:29.694Z,64.06
2023-04-22T09:52:59.022Z,63.17
2023-04-22T09:55:27.936Z,63.06
2023-04-22T09:57:56.457Z,61.98
2023-04-22T10:00:30.723Z,59.85
2023-04-22T10:02:57.266Z,55.81
2023-04-22T10:05:25.417Z,54.56
2023-04-22T10:07:52.194Z,54.66
2023-04-22T10:10:18.763Z,54.30
2023-04-22T10:12:47.415Z,54.18
2023-04-22T10:15:14.208Z,55.87
2023-04-22T10:17:42.138Z,56.80
2023-04-22T10:20:16.145Z,58.13
2023-04-22T10:22:43.325Z,57.07
2023-04-22T10:25:21.477Z,59.09
2023-04-22T10:28:01.705Z,57.63
2023-04-22T10:30:30.564Z,57.64
2023-04-22T10:33:17.055Z,58.07
2023-04-22T10:36:09.242Z,56.26
2023-04-22T10:38:37.317Z,55.74
2023-04-22T10:41:04.150Z,55.41
2023-04-22T10:43:55.179Z,57.24
2023-04-22T10:46:32.134Z,55.83
2023-04-22T10:49:12.105Z,56.13
2023-04-22T10:51:42.537Z,56.45
2023-04-22T10:54:36.523Z,56.37
2023-04-22T10:57:08.836Z,57.40
2023-04-22T10:59:42.520Z,58.69
2023-04-22T11:02:11.754Z,58.25
2023-04-22T11:04:39.453Z,58.75
2023-04-22T11:07:16.281Z,57.95
2023-04-22T11:09:47.553Z,57.96
2023-04-22T11:12:35.959Z,56.72
2023-04-22T11:15:06.205Z,55.83
2023-04-22T11:17:32.894Z,54.73
2023-04-22T11:19:59.923Z,55.52
2023-04-22T11:22:27.097Z,56.20
2023-04-22T11:24:57.491Z,56.51
2023-04-22T11:27:27.816Z,53.58
2023-04-22T11:30:08.493Z,50.60
2023-04-22T11:32:36.629Z,50.00
2023-04-22T11:35:05.244Z,49.04
2023-04-22T11:37:31.777Z,50.34
2023-04-22T11:40:21.458Z,49.27
2023-04-22T11:42:49.340Z,49.03
2023-04-22T11:45:16.260Z,49.45
2023-04-22T11:47:43.173Z,47.95
2023-04-22T11:50:11.857Z,46.55
2023-04-22T11:52:57.108Z,45.58
2023-04-22T11:55:31.554Z,45.33
2023-04-22T11:57:59.683Z,44.58
2023-04-22T12:00:31.902Z,46.63
2023-04-22T12:03:07.982Z,43.86
2023-04-22T12:05:39.704Z,45.12
2023-04-22T12:08:11.219Z,43.60
2023-04-22T12:10:47.805Z,42.83
2023-04-22T12:13:20.871Z,42.87
2023-04-22T12:15:48.184Z,43.47
2023-04-22T12:18:14.693Z,42.95
2023-04-22T12:20:42.230Z,42.88
2023-04-22T12:23:17.161Z,42.75
2023-04-22T12:25:43.784Z,42.13
2023-04-22T12:28:11.159Z,43.19
2023-04-22T12:30:37.626Z,45.10
2023-04-22T12:33:04.169Z,46.28
2023-04-22T12:35:30.671Z,44.96
2023-04-22T12:37:57.220Z,44.80
2023-04-22T12:40:23.829Z,45.77
2023-04-22T12:42:50.414Z,46.02
2023-04-22T12:45:16.887Z,42.45
2023-04-22T12:47:43.448Z,42.43
2023-04-22T12:50:09.954Z,41.47
2023-04-22T12:52:36.561Z,39.64
2023-04-22T12:55:03.878Z,40.68
2023-04-22T12:57:30.410Z,39.38
2023-04-22T12:59:58.256Z,40.30
2023-04-22T13:02:24.902Z,38.75
2023-04-22T13:04:51.687Z,37.59
2023-04-22T13:07:19.216Z,38.60
2023-04-22T13:09:45.765Z,38.76
2023-04-22T13:12:12.261Z,38.77
2023-04-22T13:14:39.202Z,38.36
2023-04-22T13:17:06.228Z,37.86
2023-04-22T13:19:35.126Z,38.66
2023-04-22T13:22:01.752Z,38.77
2023-04-22T13:24:28.332Z,37.96
2023-04-22T13:26:54.936Z,37.73
2023-04-22T13:29:21.731Z,38.43
2023-04-22T13:31:48.303Z,38.40
2023-04-22T13:34:15.357Z,38.41
2023-04-22T13:36:41.960Z,38.03
2023-04-22T13:39:08.944Z,38.45
2023-04-22T13:41:36.124Z,38.51
2023-04-22T13:44:04.366Z,37.87
2023-04-22T13:46:31.139Z,37.58
2023-04-22T13:48:58.650Z,38.31
2023-04-22T13:51:25.197Z,38.70
2023-04-22T13:53:51.837Z,36.69
2023-04-22T13:56:18.389Z,38.40
2023-04-22T13:58:44.932Z,37.41
2023-04-22T14:01:11.517Z,37.61
2023-04-22T14:03:38.147Z,37.04
2023-04-22T14:06:04.878Z,37.39
2023-04-22T14:08:31.361Z,38.73
2023-04-22T14:10:59.357Z,38.50
2023-04-22T14:13:27.468Z,39.00
2023-04-22T14:15:54.062Z,39.48
2023-04-22T14:18:22.120Z,40.21
2023-04-22T14:20:49.151Z,40.30
2023-04-22T14:23:15.825Z,40.96
2023-04-22T14:25:43.797Z,41.20
2023-04-22T14:28:10.470Z,42.10
2023-04-22T14:30:37.097Z,44.96
2023-04-22T14:33:06.965Z,45.74
2023-04-22T14:35:36.405Z,44.80
2023-04-22T14:38:05.585Z,45.52
2023-04-22T14:40:32.115Z,48.05
2023-04-22T14:43:00.898Z,49.23
2023-04-22T14:45:29.268Z,50.16
2023-04-22T14:47:56.984Z,49.72
2023-04-22T14:50:23.619Z,50.16
2023-04-22T14:52:50.991Z,51.15
2023-04-22T14:55:23.358Z,53.29
2023-04-22T14:57:52.279Z,54.56
2023-04-22T15:00:19.017Z,55.85
2023-04-22T15:02:45.854Z,57.70
2023-04-22T15:05:12.338Z,56.71
2023-04-22T15:07:38.856Z,56.59
2023-04-22T15:10:05.786Z,59.08
2023-04-22T15:12:32.318Z,59.38
2023-04-22T15:14:58.827Z,59.21
2023-04-22T15:17:25.672Z,60.82
2023-04-22T15:19:54.823Z,60.66
2023-04-22T15:22:21.262Z,62.68
2023-04-22T15:24:47.730Z,60.44
2023-04-22T15:27:14.263Z,56.81
2023-04-22T15:29:45.017Z,52.35
2023-04-22T15:32:11.616Z,54.49
2023-04-22T15:34:38.152Z,57.44
2023-04-22T15:37:04.768Z,60.03
2023-04-22T15:39:31.249Z,58.00
2023-04-22T15:41:57.760Z,57.86
2023-04-22T15:44:24.321Z,58.20
2023-04-22T15:46:53.947Z,60.68
2023-04-22T15:49:20.548Z,60.30
2023-04-22T15:51:47.549Z,64.12
2023-04-22T15:54:14.040Z,65.66
2023-04-22T15:56:40.796Z,67.00
2023-04-22T15:59:07.398Z,67.48
2023-04-22T16:01:33.913Z,72.41
2023-04-22T16:04:01.140Z,73.00
2023-04-22T16:06:28.066Z,71.19
2023-04-22T16:08:55.186Z,70.66
2023-04-22T16:11:21.743Z,70.33
2023-04-22T16:13:48.182Z,70.75
2023-04-22T16:16:14.713Z,72.86
2023-04-22T16:18:44.094Z,73.74
2023-04-22T16:21:11.144Z,76.43
2023-04-22T16:23:37.727Z,75.46
2023-04-22T16:26:05.798Z,75.28
2023-04-22T16:28:32.463Z,73.63
2023-04-22T16:30:59.082Z,72.94
2023-04-22T16:33:25.868Z,73.19
2023-04-22T16:35:52.360Z,70.53
2023-04-22T16:38:18.821Z,69.46
2023-04-22T16:40:45.492Z,69.64
2023-04-22T16:43:13.005Z,68.78
2023-04-22T16:45:39.691Z,67.82
2023-04-22T16:48:06.329Z,66.70
2023-04-22T16:50:32.829Z,68.43
2023-04-22T16:52:59.293Z,66.67
2023-04-22T16:55:25.772Z,68.53
2023-04-22T16:57:52.298Z,68.26
2023-04-22T17:00:18.819Z,67.81
2023-04-22T17:02:45.669Z,67.36
2023-04-22T17:05:12.303Z,66.60
2023-04-22T17:07:38.839Z,67.18
2023-04-22T17:10:05.984Z,67.68
2023-04-22T17:12:32.545Z,66.92
2023-04-22T17:14:59.056Z,66.72
2023-04-22T17:17:25.725Z,66.44
2023-04-22T17:19:52.327Z,68.27
2023-04-22T17:22:18.905Z,67.90
2023-04-22T17:24:46.135Z,68.76
2023-04-22T17:27:15.155Z,68.43
2023-04-22T17:29:41.954Z,70.10
2023-04-22T17:32:08.903Z,71.40
2023-04-22T17:34:35.543Z,72.58
2023-04-22T17:37:02.095Z,72.11
2023-04-22T17:39:28.652Z,72.72
2023-04-22T17:41:55.470Z,72.36
2023-04-22T17:44:21.965Z,72.78
2023-04-22T17:46:48.530Z,74.16
2023-04-22T17:49:15.011Z,73.58
2023-04-22T17:51:41.561Z,72.26
2023-04-22T17:54:08.048Z,73.26
2023-04-22T17:56:34.623Z,74.02
2023-04-22T17:59:01.125Z,74.36
2023-04-22T18:01:29.600Z,74.64
2023-04-22T18:03:56.812Z,74.42
2023-04-22T18:06:23.433Z,74.66
2023-04-22T18:08:49.993Z,74.44
2023-04-22T18:11:16.678Z,74.35
2023-04-22T18:13:43.149Z,75.09
2023-04-22T18:16:09.659Z,75.47
2023-04-22T18:18:36.362Z,75.16
2023-04-22T18:21:03.147Z,76.14
2023-04-22T18:23:29.673Z,76.35
2023-04-22T18:25:56.341Z,77.02
2023-04-22T18:28:22.823Z,77.16
2023-04-22T18:30:49.405Z,76.77
2023-04-22T18:33:15.920Z,77.26
2023-04-22T18:35:42.512Z,76.93
2023-04-22T18:38:08.955Z,76.78
2023-04-22T18:40:35.608Z,76.83
2023-04-22T18:43:02.677Z,76.01
2023-04-22T18:45:29.140Z,75.61
2023-04-22T18:47:55.766Z,74.36
2023-04-22T18:50:22.453Z,75.81
2023-04-22T18:52:48.976Z,76.25
2023-04-22T18:55:15.650Z,76.44
2023-04-22T18:57:43.667Z,76.16
2023-04-22T19:00:12.658Z,76.51
2023-04-22T19:02:41.487Z,76.56
2023-04-22T19:05:09.578Z,77.62
2023-04-22T19:07:37.179Z,76.20
2023-04-22T19:10:04.349Z,76.67
2023-04-22T19:12:31.095Z,77.08
2023-04-22T19:15:00.206Z,76.54
2023-04-22T19:17:27.518Z,75.08
2023-04-22T19:19:54.312Z,75.96
2023-04-22T19:22:24.247Z,77.09
2023-04-22T19:24:51.992Z,78.31
2023-04-22T19:27:18.986Z,79.10
2023-04-22T19:29:51.177Z,80.04
2023-04-22T19:32:18.288Z,79.96
2023-04-22T19:34:44.844Z,79.50
2023-04-22T19:37:11.523Z,77.50
2023-04-22T19:39:38.018Z,77.22
2023-04-22T19:42:04.870Z,77.73
2023-04-22T19:44:31.657Z,78.29
2023-04-22T19:46:58.302Z,79.01
2023-04-22T19:49:25.124Z,79.46
2023-04-22T19:51:52.617Z,80.84
2023-04-22T19:54:22.731Z,81.64
2023-04-22T19:56:49.378Z,82.93
2023-04-22T19:59:16.212Z,84.97
2023-04-22T20:01:43.005Z,85.03
2023-04-22T20:04:10.058Z,85.83
2023-04-22T20:06:37.513Z,85.89
2023-04-22T20:09:05.504Z,86.96
2023-04-22T20:11:32.966Z,87.99
2023-04-22T20:14:00.063Z,88.32
2023-04-22T20:16:27.711Z,87.94
2023-04-22T20:18:54.529Z,88.08
2023-04-22T20:21:21.891Z,88.95
2023-04-22T20:23:51.298Z,89.45
2023-04-22T20:26:20.629Z,89.39
2023-04-22T20:28:54.675Z,89.65
2023-04-22T20:31:23.083Z,89.70
2023-04-22T20:33:51.094Z,90.48
2023-04-22T20:36:19.717Z,89.35
2023-04-22T20:38:49.151Z,89.31
2023-04-22T20:41:18.734Z,89.04
2023-04-22T20:43:46.458Z,88.59
2023-04-22T20:46:13.013Z,89.07
2023-04-22T20:48:39.580Z,88.18
2023-04-22T20:51:06.132Z,88.26
2023-04-22T20:53:32.711Z,88.89
2023-04-22T20:55:59.207Z,89.41
2023-04-22T20:58:26.679Z,88.90
2023-04-22T21:00:53.509Z,89.31
2023-04-22T21:03:22.813Z,89.11
2023-04-22T21:05:50.186Z,89.40
2023-04-22T21:08:22.768Z,89.45
2023-04-22T21:10:51.167Z,89.24
2023-04-22T21:13:18.179Z,88.26
2023-04-22T21:15:59.644Z,86.89
2023-04-22T21:18:28.890Z,86.17
2023-04-22T21:20:57.085Z,84.35
2023-04-22T21:23:24.921Z,82.73
2023-04-22T21:25:54.908Z,84.63
2023-04-22T21:28:21.882Z,84.55
2023-04-22T21:30:48.677Z,84.95
2023-04-22T21:33:15.276Z,85.75
2023-04-22T21:35:41.845Z,85.69
2023-04-22T21:38:09.121Z,86.40
2023-04-22T21:40:36.269Z,86.03
2023-04-22T21:43:04.410Z,86.60
2023-04-22T21:45:31.258Z,86.48
2023-04-22T21:48:00.832Z,86.71
2023-04-22T21:50:30.126Z,87.35
2023-04-22T21:52:56.744Z,88.12
2023-04-22T21:55:23.391Z,88.12
2023-04-22T21:57:49.896Z,88.24
2023-04-22T22:00:19.071Z,87.98
2023-04-22T22:02:47.360Z,88.02
2023-04-22T22:05:16.842Z,87.27
2023-04-22T22:07:44.797Z,88.31
2023-04-22T22:10:14.534Z,90.17
2023-04-22T22:12:41.665Z,90.74
2023-04-22T22:15:09.148Z,90.16
2023-04-22T22:17:38.030Z,91.79
2023-04-22T22:20:12.512Z,91.81
2023-04-22T22:22:39.884Z,93.02
2023-04-22T22:25:07.717Z,92.26
2023-04-22T22:27:35.283Z,92.74
2023-04-22T22:30:01.846Z,92.25
2023-04-22T22:32:28.354Z,92.27
2023-04-22T22:34:54.897Z,92.04
2023-04-22T22:37:21.474Z,91.80
2023-04-22T22:39:47.994Z,92.04
2023-04-22T22:42:14.880Z,91.88
2023-04-22T22:44:41.622Z,91.99
2023-04-22T22:47:09.386Z,92.00
2023-04-22T22:49:36.122Z,91.92
2023-04-22T22:52:02.637Z,93.17
2023-04-22T22:54:29.178Z,94.03
2023-04-22T22:56:57.803Z,93.60
2023-04-22T22:59:24.301Z,93.79
2023-04-22T23:01:50.947Z,94.02
2023-04-22T23:04:17.896Z,93.27
2023-04-22T23:06:44.536Z,94.03
2023-04-22T23:09:11.282Z,93.32
2023-04-22T23:11:37.759Z,93.63
2023-04-22T23:14:04.620Z,94.27
2023-04-22T23:16:31.543Z,95.84
2023-04-22T23:21:25.578Z,93.62
2023-04-22T23:23:52.719Z,92.94
2023-04-22T23:26:19.584Z,93.83
2023-04-22T23:28:46.617Z,95.52
2023-04-22T23:31:14.655Z,95.57
2023-04-22T23:33:42.399Z,95.01
2023-04-22T23:36:10.645Z,93.80
2023-04-22T23:38:37.090Z,92.51
2023-04-22T23:41:03.663Z,91.63
2023-04-22T23:43:30.144Z,90.65
2023-04-22T23:45:56.799Z,90.73
2023-04-22T23:48:23.357Z,91.30
2023-04-22T23:50:49.811Z,91.10
2023-04-22T23:53:16.267Z,91.56
2023-04-22T23:55:43.238Z,92.26
2023-04-22T23:58:09.941Z,92.43
